sensor_id;sensor_type;location;lat;lon;timestamp;pressure;altitude;pressure_sealevel;temperature
66180;BMP280;52986;44.028;20.466;2023-02-28T00:02:16;98778.81;;;2.41
66180;BMP280;52986;44.028;20.466;2023-02-28T00:04:43;98800.78;;;2.45
66180;BMP280;52986;44.028;20.466;2023-02-28T00:07:09;98807.56;;;2.43
66180;BMP280;52986;44.028;20.466;2023-02-28T00:09:34;98814.22;;;2.33
66180;BMP280;52986;44.028;20.466;2023-02-28T00:11:59;98813.38;;;2.26
66180;BMP280;52986;44.028;20.466;2023-02-28T00:14:25;98811.16;;;2.31
66180;BMP280;52986;44.028;20.466;2023-02-28T00:16:51;98823.66;;;2.34
66180;BMP280;52986;44.028;20.466;2023-02-28T00:19:17;98824.44;;;2.35
66180;BMP280;52986;44.028;20.466;2023-02-28T00:21:42;98817.16;;;2.25
66180;BMP280;52986;44.028;20.466;2023-02-28T00:24:08;98818.66;;;2.26
66180;BMP280;52986;44.028;20.466;2023-02-28T00:26:33;98815.69;;;2.31
66180;BMP280;52986;44.028;20.466;2023-02-28T00:28:58;98826.66;;;2.33
66180;BMP280;52986;44.028;20.466;2023-02-28T00:31:24;98830.75;;;2.27
66180;BMP280;52986;44.028;20.466;2023-02-28T00:33:49;98827.78;;;2.32
66180;BMP280;52986;44.028;20.466;2023-02-28T00:36:16;98835.00;;;2.35
66180;BMP280;52986;44.028;20.466;2023-02-28T00:38:42;98832.88;;;2.44
66180;BMP280;52986;44.028;20.466;2023-02-28T00:41:08;98833.19;;;2.39
66180;BMP280;52986;44.028;20.466;2023-02-28T00:43:35;98822.50;;;2.32
66180;BMP280;52986;44.028;20.466;2023-02-28T00:46:01;98823.72;;;2.38
66180;BMP280;52986;44.028;20.466;2023-02-28T00:48:27;98817.72;;;2.41
66180;BMP280;52986;44.028;20.466;2023-02-28T00:50:53;98814.69;;;2.39
66180;BMP280;52986;44.028;20.466;2023-02-28T00:53:18;98808.19;;;2.36
66180;BMP280;52986;44.028;20.466;2023-02-28T00:55:43;98795.78;;;2.37
66180;BMP280;52986;44.028;20.466;2023-02-28T00:58:09;98806.75;;;2.39
66180;BMP280;52986;44.028;20.466;2023-02-28T01:00:34;98811.75;;;2.44
66180;BMP280;52986;44.028;20.466;2023-02-28T01:03:00;98819.66;;;2.44
66180;BMP280;52986;44.028;20.466;2023-02-28T01:05:25;98818.03;;;2.36
66180;BMP280;52986;44.028;20.466;2023-02-28T01:07:51;98828.56;;;2.32
66180;BMP280;52986;44.028;20.466;2023-02-28T01:10:16;98821.31;;;2.26
66180;BMP280;52986;44.028;20.466;2023-02-28T01:12:41;98823.59;;;2.27
66180;BMP280;52986;44.028;20.466;2023-02-28T01:15:10;98827.66;;;2.21
66180;BMP280;52986;44.028;20.466;2023-02-28T01:17:36;98825.38;;;2.20
66180;BMP280;52986;44.028;20.466;2023-02-28T01:20:02;98822.81;;;2.27
66180;BMP280;52986;44.028;20.466;2023-02-28T01:22:28;98816.03;;;2.26
66180;BMP280;52986;44.028;20.466;2023-02-28T01:24:53;98814.50;;;2.25
66180;BMP280;52986;44.028;20.466;2023-02-28T01:27:19;98817.47;;;2.23
66180;BMP280;52986;44.028;20.466;2023-02-28T01:29:44;98812.19;;;2.23
66180;BMP280;52986;44.028;20.466;2023-02-28T01:32:10;98809.53;;;2.23
66180;BMP280;52986;44.028;20.466;2023-02-28T01:34:35;98803.94;;;2.25
66180;BMP280;52986;44.028;20.466;2023-02-28T01:37:01;98802.81;;;2.26
66180;BMP280;52986;44.028;20.466;2023-02-28T01:39:26;98802.03;;;2.25
66180;BMP280;52986;44.028;20.466;2023-02-28T01:41:52;98797.09;;;2.24
66180;BMP280;52986;44.028;20.466;2023-02-28T01:47:22;98823.22;;;2.29
66180;BMP280;52986;44.028;20.466;2023-02-28T01:49:49;98819.44;;;2.26
66180;BMP280;52986;44.028;20.466;2023-02-28T01:52:16;98828.88;;;2.27
66180;BMP280;52986;44.028;20.466;2023-02-28T01:54:50;98820.19;;;2.27
66180;BMP280;52986;44.028;20.466;2023-02-28T01:57:20;98825.09;;;2.28
66180;BMP280;52986;44.028;20.466;2023-02-28T02:00:00;98824.28;;;2.24
66180;BMP280;52986;44.028;20.466;2023-02-28T02:02:29;98831.78;;;2.18
66180;BMP280;52986;44.028;20.466;2023-02-28T02:05:03;98840.09;;;2.21
66180;BMP280;52986;44.028;20.466;2023-02-28T02:07:35;98825.75;;;2.22
66180;BMP280;52986;44.028;20.466;2023-02-28T02:10:10;98832.16;;;2.21
66180;BMP280;52986;44.028;20.466;2023-02-28T02:15:34;98836.03;;;2.27
66180;BMP280;52986;44.028;20.466;2023-02-28T02:18:39;98836.03;;;2.27
66180;BMP280;52986;44.028;20.466;2023-02-28T02:24:49;98837.94;;;2.26
66180;BMP280;52986;44.028;20.466;2023-02-28T02:37:57;98820.94;;;2.27
66180;BMP280;52986;44.028;20.466;2023-02-28T02:40:30;98821.75;;;2.31
66180;BMP280;52986;44.028;20.466;2023-02-28T02:43:07;98820.25;;;2.34
66180;BMP280;52986;44.028;20.466;2023-02-28T02:45:49;98818.38;;;2.34
66180;BMP280;52986;44.028;20.466;2023-02-28T02:48:19;98805.91;;;2.35
66180;BMP280;52986;44.028;20.466;2023-02-28T02:50:57;98806.69;;;2.35
66180;BMP280;52986;44.028;20.466;2023-02-28T02:53:33;98809.69;;;2.34
66180;BMP280;52986;44.028;20.466;2023-02-28T02:56:01;98802.84;;;2.29
66180;BMP280;52986;44.028;20.466;2023-02-28T02:58:33;98802.84;;;2.29
66180;BMP280;52986;44.028;20.466;2023-02-28T03:01:02;98809.66;;;2.30
66180;BMP280;52986;44.028;20.466;2023-02-28T03:03:30;98811.56;;;2.33
66180;BMP280;52986;44.028;20.466;2023-02-28T03:05:59;98810.03;;;2.32
66180;BMP280;52986;44.028;20.466;2023-02-28T03:08:26;98802.81;;;2.26
66180;BMP280;52986;44.028;20.466;2023-02-28T03:10:59;98815.19;;;2.22
66180;BMP280;52986;44.028;20.466;2023-02-28T03:19:51;98835.22;;;2.23
66180;BMP280;52986;44.028;20.466;2023-02-28T03:22:27;98836.81;;;2.27
66180;BMP280;52986;44.028;20.466;2023-02-28T03:25:24;98836.72;;;2.24
66180;BMP280;52986;44.028;20.466;2023-02-28T03:27:59;98839.06;;;2.25
66180;BMP280;52986;44.028;20.466;2023-02-28T03:33:36;98845.09;;;2.26
66180;BMP280;52986;44.028;20.466;2023-02-28T03:36:13;98832.63;;;2.26
66180;BMP280;52986;44.028;20.466;2023-02-28T03:38:51;98834.53;;;2.26
66180;BMP280;52986;44.028;20.466;2023-02-28T03:41:26;98833.00;;;2.25
66180;BMP280;52986;44.028;20.466;2023-02-28T03:44:01;98830.69;;;2.23
66180;BMP280;52986;44.028;20.466;2023-02-28T03:46:30;98841.97;;;2.20
66180;BMP280;52986;44.028;20.466;2023-02-28T03:49:09;98841.91;;;2.16
66180;BMP280;52986;44.028;20.466;2023-02-28T03:51:37;98840.47;;;2.19
66180;BMP280;52986;44.028;20.466;2023-02-28T03:54:11;98848.44;;;2.23
66180;BMP280;52986;44.028;20.466;2023-02-28T03:56:41;98849.94;;;2.24
66180;BMP280;52986;44.028;20.466;2023-02-28T03:59:16;98853.31;;;2.21
66180;BMP280;52986;44.028;20.466;2023-02-28T04:01:47;98850.13;;;2.11
66180;BMP280;52986;44.028;20.466;2023-02-28T04:04:13;98855.84;;;2.13
66180;BMP280;52986;44.028;20.466;2023-02-28T04:06:39;98850.97;;;2.15
66180;BMP280;52986;44.028;20.466;2023-02-28T04:09:07;98849.16;;;2.20
66180;BMP280;52986;44.028;20.466;2023-02-28T04:11:38;98850.19;;;2.15
66180;BMP280;52986;44.028;20.466;2023-02-28T04:14:05;98840.03;;;2.17
66180;BMP280;52986;44.028;20.466;2023-02-28T04:16:32;98847.97;;;2.17
66180;BMP280;52986;44.028;20.466;2023-02-28T04:18:58;98852.47;;;2.16
66180;BMP280;52986;44.028;20.466;2023-02-28T04:21:29;98850.66;;;2.21
66180;BMP280;52986;44.028;20.466;2023-02-28T04:23:55;98860.53;;;2.24
66180;BMP280;52986;44.028;20.466;2023-02-28T04:26:20;98860.53;;;2.24
66180;BMP280;52986;44.028;20.466;2023-02-28T04:28:45;98855.59;;;2.22
66180;BMP280;52986;44.028;20.466;2023-02-28T04:31:11;98857.84;;;2.20
66180;BMP280;52986;44.028;20.466;2023-02-28T04:33:36;98845.78;;;2.23
66180;BMP280;52986;44.028;20.466;2023-02-28T04:36:04;98851.03;;;2.19
66180;BMP280;52986;44.028;20.466;2023-02-28T04:38:32;98865.34;;;2.18
66180;BMP280;52986;44.028;20.466;2023-02-28T04:40:59;98860.00;;;2.14
66180;BMP280;52986;44.028;20.466;2023-02-28T04:43:28;98853.97;;;2.14
66180;BMP280;52986;44.028;20.466;2023-02-28T04:45:54;98854.72;;;2.14
66180;BMP280;52986;44.028;20.466;2023-02-28T04:48:28;98850.66;;;2.21
66180;BMP280;52986;44.028;20.466;2023-02-28T04:50:54;98850.66;;;2.21
66180;BMP280;52986;44.028;20.466;2023-02-28T04:53:20;98849.06;;;2.16
66180;BMP280;52986;44.028;20.466;2023-02-28T04:55:46;98859.75;;;2.23
66180;BMP280;52986;44.028;20.466;2023-02-28T04:58:12;98848.78;;;2.21
66180;BMP280;52986;44.028;20.466;2023-02-28T05:00:37;98847.75;;;2.26
66180;BMP280;52986;44.028;20.466;2023-02-28T05:03:03;98858.31;;;2.26
66180;BMP280;52986;44.028;20.466;2023-02-28T05:05:28;98846.63;;;2.27
66180;BMP280;52986;44.028;20.466;2023-02-28T05:07:54;98846.97;;;2.25
66180;BMP280;52986;44.028;20.466;2023-02-28T05:10:21;98862.41;;;2.23
66180;BMP280;52986;44.028;20.466;2023-02-28T05:12:47;98867.69;;;2.23
66180;BMP280;52986;44.028;20.466;2023-02-28T05:15:14;98862.75;;;2.22
66180;BMP280;52986;44.028;20.466;2023-02-28T05:17:39;98864.53;;;2.14
66180;BMP280;52986;44.028;20.466;2023-02-28T05:20:05;98873.78;;;2.04
66180;BMP280;52986;44.028;20.466;2023-02-28T05:22:31;98873.50;;;2.09
66180;BMP280;52986;44.028;20.466;2023-02-28T05:24:57;98877.75;;;2.14
66180;BMP280;52986;44.028;20.466;2023-02-28T05:27:22;98882.28;;;2.13
66180;BMP280;52986;44.028;20.466;2023-02-28T05:29:48;98878.16;;;2.16
66180;BMP280;52986;44.028;20.466;2023-02-28T05:32:13;98880.16;;;2.23
66180;BMP280;52986;44.028;20.466;2023-02-28T05:34:39;98879.03;;;2.24
66180;BMP280;52986;44.028;20.466;2023-02-28T05:37:06;98882.84;;;2.26
66180;BMP280;52986;44.028;20.466;2023-02-28T05:39:34;98878.00;;;2.32
66180;BMP280;52986;44.028;20.466;2023-02-28T05:42:00;98885.59;;;2.33
66180;BMP280;52986;44.028;20.466;2023-02-28T05:44:25;98888.63;;;2.35
66180;BMP280;52986;44.028;20.466;2023-02-28T05:46:51;98891.34;;;2.39
66180;BMP280;52986;44.028;20.466;2023-02-28T05:49:16;98902.59;;;2.36
66180;BMP280;52986;44.028;20.466;2023-02-28T05:51:41;98910.22;;;2.37
66180;BMP280;52986;44.028;20.466;2023-02-28T05:54:07;98906.38;;;2.35
66180;BMP280;52986;44.028;20.466;2023-02-28T05:56:33;98901.09;;;2.35
66180;BMP280;52986;44.028;20.466;2023-02-28T05:59:00;98911.72;;;2.38
66180;BMP280;52986;44.028;20.466;2023-02-28T06:01:38;98915.97;;;2.43
66180;BMP280;52986;44.028;20.466;2023-02-28T06:04:06;98912.97;;;2.44
66180;BMP280;52986;44.028;20.466;2023-02-28T06:06:32;98907.59;;;2.41
66180;BMP280;52986;44.028;20.466;2023-02-28T06:08:59;98909.97;;;2.46
66180;BMP280;52986;44.028;20.466;2023-02-28T06:11:26;98910.78;;;2.50
66180;BMP280;52986;44.028;20.466;2023-02-28T06:13:56;98911.19;;;2.52
66180;BMP280;52986;44.028;20.466;2023-02-28T06:16:23;98910.06;;;2.53
66180;BMP280;52986;44.028;20.466;2023-02-28T06:18:48;98907.06;;;2.55
66180;BMP280;52986;44.028;20.466;2023-02-28T06:21:14;98901.91;;;2.62
66180;BMP280;52986;44.028;20.466;2023-02-28T06:23:39;98901.47;;;2.60
66180;BMP280;52986;44.028;20.466;2023-02-28T06:26:05;98903.78;;;2.61
66180;BMP280;52986;44.028;20.466;2023-02-28T06:28:30;98905.31;;;2.62
66180;BMP280;52986;44.028;20.466;2023-02-28T06:30:56;98912.88;;;2.64
66180;BMP280;52986;44.028;20.466;2023-02-28T06:33:21;98916.31;;;2.68
66180;BMP280;52986;44.028;20.466;2023-02-28T06:35:50;98916.31;;;2.68
66180;BMP280;52986;44.028;20.466;2023-02-28T06:38:16;98924.66;;;2.70
66180;BMP280;52986;44.028;20.466;2023-02-28T06:40:41;98918.31;;;2.74
66180;BMP280;52986;44.028;20.466;2023-02-28T06:43:07;98919.47;;;2.77
66180;BMP280;52986;44.028;20.466;2023-02-28T06:45:32;98925.94;;;2.80
66180;BMP280;52986;44.028;20.466;2023-02-28T06:47:58;98922.19;;;2.81
66180;BMP280;52986;44.028;20.466;2023-02-28T06:50:25;98929.41;;;2.84
66180;BMP280;52986;44.028;20.466;2023-02-28T06:52:52;98919.06;;;2.75
66180;BMP280;52986;44.028;20.466;2023-02-28T06:55:19;98924.09;;;2.84
66180;BMP280;52986;44.028;20.466;2023-02-28T06:57:44;98934.28;;;2.82
66180;BMP280;52986;44.028;20.466;2023-02-28T07:00:11;98939.59;;;2.82
66180;BMP280;52986;44.028;20.466;2023-02-28T07:02:37;98936.63;;;2.87
66180;BMP280;52986;44.028;20.466;2023-02-28T07:05:04;98938.91;;;2.88
66180;BMP280;52986;44.028;20.466;2023-02-28T07:07:31;98938.22;;;2.91
66180;BMP280;52986;44.028;20.466;2023-02-28T07:09:57;98942.88;;;3.01
66180;BMP280;52986;44.028;20.466;2023-02-28T07:12:22;98941.03;;;3.06
66180;BMP280;52986;44.028;20.466;2023-02-28T07:14:51;98936.16;;;3.08
66180;BMP280;52986;44.028;20.466;2023-02-28T07:17:16;98936.22;;;3.11
66180;BMP280;52986;44.028;20.466;2023-02-28T07:19:41;98933.66;;;3.18
66180;BMP280;52986;44.028;20.466;2023-02-28T07:22:07;98930.69;;;3.27
66180;BMP280;52986;44.028;20.466;2023-02-28T07:24:33;98930.00;;;3.30
66180;BMP280;52986;44.028;20.466;2023-02-28T07:26:58;98933.28;;;3.20
66180;BMP280;52986;44.028;20.466;2023-02-28T07:29:24;98935.31;;;3.30
66180;BMP280;52986;44.028;20.466;2023-02-28T07:31:50;98936.88;;;3.35
66180;BMP280;52986;44.028;20.466;2023-02-28T07:34:18;98938.09;;;3.41
66180;BMP280;52986;44.028;20.466;2023-02-28T07:36:44;98925.97;;;3.40
66180;BMP280;52986;44.028;20.466;2023-02-28T07:39:09;98929.13;;;3.52
66180;BMP280;52986;44.028;20.466;2023-02-28T07:41:35;98932.94;;;3.55
66180;BMP280;52986;44.028;20.466;2023-02-28T07:44:04;98932.19;;;3.54
66180;BMP280;52986;44.028;20.466;2023-02-28T07:46:30;98929.97;;;3.60
66180;BMP280;52986;44.028;20.466;2023-02-28T07:49:00;98932.31;;;3.65
66180;BMP280;52986;44.028;20.466;2023-02-28T07:51:28;98937.69;;;3.76
66180;BMP280;52986;44.028;20.466;2023-02-28T07:53:53;98944.88;;;3.72
66180;BMP280;52986;44.028;20.466;2023-02-28T07:56:19;98939.16;;;3.70
66180;BMP280;52986;44.028;20.466;2023-02-28T07:58:44;98938.41;;;3.69
66180;BMP280;52986;44.028;20.466;2023-02-28T08:01:10;98940.72;;;3.71
66180;BMP280;52986;44.028;20.466;2023-02-28T08:03:36;98944.13;;;3.71
66180;BMP280;52986;44.028;20.466;2023-02-28T08:06:04;98945.94;;;3.67
66180;BMP280;52986;44.028;20.466;2023-02-28T08:08:30;98944.09;;;3.75
66180;BMP280;52986;44.028;20.466;2023-02-28T08:11:01;98936.91;;;3.75
66180;BMP280;52986;44.028;20.466;2023-02-28T08:13:28;98941.28;;;3.91
66180;BMP280;52986;44.028;20.466;2023-02-28T08:15:55;98946.06;;;3.81
66180;BMP280;52986;44.028;20.466;2023-02-28T08:18:21;98939.69;;;3.86
66180;BMP280;52986;44.028;20.466;2023-02-28T08:20:47;98937.88;;;3.94
66180;BMP280;52986;44.028;20.466;2023-02-28T08:23:12;98937.13;;;3.97
66180;BMP280;52986;44.028;20.466;2023-02-28T08:25:38;98937.59;;;4.02
66180;BMP280;52986;44.028;20.466;2023-02-28T08:28:04;98929.63;;;4.02
66180;BMP280;52986;44.028;20.466;2023-02-28T08:30:29;98937.88;;;3.94
66180;BMP280;52986;44.028;20.466;2023-02-28T08:32:54;98933.63;;;3.85
66180;BMP280;52986;44.028;20.466;2023-02-28T08:35:20;98924.13;;;3.81
66180;BMP280;52986;44.028;20.466;2023-02-28T08:37:48;98927.19;;;3.83
66180;BMP280;52986;44.028;20.466;2023-02-28T08:40:14;98927.53;;;3.81
66180;BMP280;52986;44.028;20.466;2023-02-28T08:42:46;98929.41;;;3.81
66180;BMP280;52986;44.028;20.466;2023-02-28T08:45:13;98931.47;;;3.95
66180;BMP280;52986;44.028;20.466;2023-02-28T08:47:38;98928.19;;;4.08
66180;BMP280;52986;44.028;20.466;2023-02-28T08:50:04;98931.97;;;4.07
66180;BMP280;52986;44.028;20.466;2023-02-28T08:52:30;98936.97;;;4.16
66180;BMP280;52986;44.028;20.466;2023-02-28T08:54:55;98933.91;;;4.18
66180;BMP280;52986;44.028;20.466;2023-02-28T08:57:21;98938.56;;;4.28
66180;BMP280;52986;44.028;20.466;2023-02-28T08:59:46;98943.06;;;4.24
66180;BMP280;52986;44.028;20.466;2023-02-28T09:02:15;98951.94;;;4.38
66180;BMP280;52986;44.028;20.466;2023-02-28T09:04:41;98950.50;;;4.52
66180;BMP280;52986;44.028;20.466;2023-02-28T09:07:07;98944.69;;;4.39
66180;BMP280;52986;44.028;20.466;2023-02-28T09:09:32;98949.16;;;4.28
66180;BMP280;52986;44.028;20.466;2023-02-28T09:11:57;98949.66;;;4.37
66180;BMP280;52986;44.028;20.466;2023-02-28T09:14:23;98941.31;;;4.42
66180;BMP280;52986;44.028;20.466;2023-02-28T09:16:48;98932.50;;;4.27
66180;BMP280;52986;44.028;20.466;2023-02-28T09:19:14;98935.09;;;4.20
66180;BMP280;52986;44.028;20.466;2023-02-28T09:21:39;98935.09;;;4.20
66180;BMP280;52986;44.028;20.466;2023-02-28T09:24:05;98927.88;;;4.17
66180;BMP280;52986;44.028;20.466;2023-02-28T09:26:31;98929.03;;;4.20
66180;BMP280;52986;44.028;20.466;2023-02-28T09:28:56;98924.47;;;4.17
66180;BMP280;52986;44.028;20.466;2023-02-28T09:31:26;98922.66;;;4.28
66180;BMP280;52986;44.028;20.466;2023-02-28T09:33:54;98925.66;;;4.26
66180;BMP280;52986;44.028;20.466;2023-02-28T09:36:20;98939.72;;;4.30
66180;BMP280;52986;44.028;20.466;2023-02-28T09:38:46;98932.50;;;4.27
66180;BMP280;52986;44.028;20.466;2023-02-28T09:41:39;98937.72;;;4.20
66180;BMP280;52986;44.028;20.466;2023-02-28T09:44:17;98925.94;;;4.18
66180;BMP280;52986;44.028;20.466;2023-02-28T09:46:49;98937.41;;;4.25
66180;BMP280;52986;44.028;20.466;2023-02-28T09:49:20;98936.72;;;4.35
66180;BMP280;52986;44.028;20.466;2023-02-28T09:52:05;98942.06;;;4.42
66180;BMP280;52986;44.028;20.466;2023-02-28T09:54:34;98934.53;;;4.48
66180;BMP280;52986;44.028;20.466;2023-02-28T09:57:06;98936.84;;;4.53
66180;BMP280;52986;44.028;20.466;2023-02-28T09:59:38;98935.41;;;4.63
66180;BMP280;52986;44.028;20.466;2023-02-28T10:02:19;98930.09;;;4.63
66180;BMP280;52986;44.028;20.466;2023-02-28T10:04:59;98928.59;;;4.65
66180;BMP280;52986;44.028;20.466;2023-02-28T10:10:29;98926.34;;;4.71
66180;BMP280;52986;44.028;20.466;2023-02-28T10:13:00;98929.78;;;4.71
66180;BMP280;52986;44.028;20.466;2023-02-28T10:15:31;98922.53;;;4.65
66180;BMP280;52986;44.028;20.466;2023-02-28T10:18:00;98925.88;;;4.58
66180;BMP280;52986;44.028;20.466;2023-02-28T10:20:27;98927.44;;;4.63
66180;BMP280;52986;44.028;20.466;2023-02-28T10:23:17;98930.09;;;4.63
66180;BMP280;52986;44.028;20.466;2023-02-28T10:25:50;98932.03;;;4.69
66180;BMP280;52986;44.028;20.466;2023-02-28T10:28:18;98931.31;;;4.76
66180;BMP280;52986;44.028;20.466;2023-02-28T10:30:49;98926.38;;;4.78
66180;BMP280;52986;44.028;20.466;2023-02-28T10:33:22;98931.75;;;4.85
66180;BMP280;52986;44.028;20.466;2023-02-28T10:35:49;98927.09;;;4.68
66180;BMP280;52986;44.028;20.466;2023-02-28T10:38:35;98927.81;;;4.65
66180;BMP280;52986;44.028;20.466;2023-02-28T10:41:08;98927.16;;;4.75
66180;BMP280;52986;44.028;20.466;2023-02-28T10:43:35;98918.81;;;4.80
66180;BMP280;52986;44.028;20.466;2023-02-28T10:48:39;98927.50;;;4.70
66180;BMP280;52986;44.028;20.466;2023-02-28T10:51:10;98916.53;;;4.75
66180;BMP280;52986;44.028;20.466;2023-02-28T10:53:47;98913.09;;;4.78
66180;BMP280;52986;44.028;20.466;2023-02-28T10:56:19;98915.41;;;4.83
66180;BMP280;52986;44.028;20.466;2023-02-28T11:01:43;98909.28;;;4.68
66180;BMP280;52986;44.028;20.466;2023-02-28T11:06:57;98910.44;;;4.71
66180;BMP280;52986;44.028;20.466;2023-02-28T11:09:29;98911.22;;;4.75
66180;BMP280;52986;44.028;20.466;2023-02-28T11:11:55;98911.94;;;4.72
66180;BMP280;52986;44.028;20.466;2023-02-28T11:14:24;98908.94;;;4.74
66180;BMP280;52986;44.028;20.466;2023-02-28T11:16:50;98909.34;;;4.79
66180;BMP280;52986;44.028;20.466;2023-02-28T11:19:23;98897.94;;;4.79
66180;BMP280;52986;44.028;20.466;2023-02-28T11:21:57;98908.97;;;4.84
66180;BMP280;52986;44.028;20.466;2023-02-28T11:26:52;98899.16;;;4.95
66180;BMP280;52986;44.028;20.466;2023-02-28T11:29:24;98897.69;;;5.02
66180;BMP280;52986;44.028;20.466;2023-02-28T11:32:26;98904.88;;;4.97
66180;BMP280;52986;44.028;20.466;2023-02-28T11:37:34;98896.91;;;4.94
66180;BMP280;52986;44.028;20.466;2023-02-28T11:40:00;98889.31;;;4.92
66180;BMP280;52986;44.028;20.466;2023-02-28T11:48:07;98888.50;;;4.85
66180;BMP280;52986;44.028;20.466;2023-02-28T12:07:19;98880.84;;;4.69
66180;BMP280;52986;44.028;20.466;2023-02-28T12:10:42;98884.66;;;4.79
66180;BMP280;52986;44.028;20.466;2023-02-28T12:12:51;98885.00;;;4.63
66180;BMP280;52986;44.028;20.466;2023-02-28T12:15:59;98883.50;;;4.69
66180;BMP280;52986;44.028;20.466;2023-02-28T12:18:59;98892.28;;;4.73
66180;BMP280;52986;44.028;20.466;2023-02-28T12:21:32;98880.09;;;4.68
66180;BMP280;52986;44.028;20.466;2023-02-28T12:26:45;98877.00;;;4.56
66180;BMP280;52986;44.028;20.466;2023-02-28T12:29:23;98881.94;;;4.61
66180;BMP280;52986;44.028;20.466;2023-02-28T12:31:54;98884.59;;;4.61
66180;BMP280;52986;44.028;20.466;2023-02-28T12:34:27;98887.63;;;4.56
66180;BMP280;52986;44.028;20.466;2023-02-28T12:36:56;98893.66;;;4.53
66180;BMP280;52986;44.028;20.466;2023-02-28T12:39:26;98883.03;;;4.49
66180;BMP280;52986;44.028;20.466;2023-02-28T12:42:03;98880.44;;;4.63
66180;BMP280;52986;44.028;20.466;2023-02-28T12:44:45;98878.88;;;4.52
66180;BMP280;52986;44.028;20.466;2023-02-28T12:47:16;98881.94;;;4.61
66180;BMP280;52986;44.028;20.466;2023-02-28T12:49:55;98888.41;;;4.63
66180;BMP280;52986;44.028;20.466;2023-02-28T12:52:31;98881.97;;;4.64
66180;BMP280;52986;44.028;20.466;2023-02-28T12:57:42;98880.75;;;4.51
66180;BMP280;52986;44.028;20.466;2023-02-28T13:00:17;98887.19;;;4.50
66180;BMP280;52986;44.028;20.466;2023-02-28T13:08:50;98871.19;;;4.36
66180;BMP280;52986;44.028;20.466;2023-02-28T13:11:29;98865.50;;;4.41
66180;BMP280;52986;44.028;20.466;2023-02-28T13:14:03;98867.78;;;4.42
66180;BMP280;52986;44.028;20.466;2023-02-28T13:16:56;98862.56;;;4.50
66180;BMP280;52986;44.028;20.466;2023-02-28T13:19:24;98866.69;;;4.43
66180;BMP280;52986;44.028;20.466;2023-02-28T13:21:51;98867.00;;;4.31
66180;BMP280;52986;44.028;20.466;2023-02-28T13:24:42;98869.28;;;4.33
66180;BMP280;52986;44.028;20.466;2023-02-28T13:29:38;98878.25;;;4.21
66180;BMP280;52986;44.028;20.466;2023-02-28T13:34:35;98868.41;;;4.22
66180;BMP280;52986;44.028;20.466;2023-02-28T13:39:56;98883.63;;;4.25
66180;BMP280;52986;44.028;20.466;2023-02-28T13:48:30;98871.84;;;4.22
66180;BMP280;52986;44.028;20.466;2023-02-28T13:50:37;98869.47;;;4.10
66180;BMP280;52986;44.028;20.466;2023-02-28T14:01:16;98858.13;;;4.09
66180;BMP280;52986;44.028;20.466;2023-02-28T14:06:48;98858.13;;;4.09
66180;BMP280;52986;44.028;20.466;2023-02-28T14:11:45;98850.94;;;4.10
66180;BMP280;52986;44.028;20.466;2023-02-28T14:17:00;98864.44;;;3.98
66180;BMP280;52986;44.028;20.466;2023-02-28T14:19:29;98863.66;;;3.90
66180;BMP280;52986;44.028;20.466;2023-02-28T14:37:13;98884.56;;;3.62
66180;BMP280;52986;44.028;20.466;2023-02-28T14:39:41;98871.31;;;3.62
66180;BMP280;52986;44.028;20.466;2023-02-28T14:42:32;98873.59;;;3.63
66180;BMP280;52986;44.028;20.466;2023-02-28T14:44:58;98884.56;;;3.62
66180;BMP280;52986;44.028;20.466;2023-02-28T14:47:28;98881.59;;;3.67
66180;BMP280;52986;44.028;20.466;2023-02-28T14:49:56;98879.00;;;3.70
66180;BMP280;52986;44.028;20.466;2023-02-28T14:52:30;98880.53;;;3.75
66180;BMP280;52986;44.028;20.466;2023-02-28T14:55:01;98868.41;;;3.70
66180;BMP280;52986;44.028;20.466;2023-02-28T14:57:33;98862.94;;;3.97
66180;BMP280;52986;44.028;20.466;2023-02-28T15:02:36;98867.44;;;3.89
66180;BMP280;52986;44.028;20.466;2023-02-28T15:05:33;98859.69;;;3.70
66180;BMP280;52986;44.028;20.466;2023-02-28T15:10:37;98870.53;;;3.57
66180;BMP280;52986;44.028;20.466;2023-02-28T15:13:10;98867.88;;;3.57
66180;BMP280;52986;44.028;20.466;2023-02-28T15:18:33;98866.31;;;3.49
66180;BMP280;52986;44.028;20.466;2023-02-28T15:21:06;98870.06;;;3.48
66180;BMP280;52986;44.028;20.466;2023-02-28T15:23:34;98876.06;;;3.42
66180;BMP280;52986;44.028;20.466;2023-02-28T15:26:01;98877.56;;;3.43
66180;BMP280;52986;44.028;20.466;2023-02-28T15:28:28;98874.22;;;3.46
66180;BMP280;52986;44.028;20.466;2023-02-28T15:31:03;98880.59;;;3.41
66180;BMP280;52986;44.028;20.466;2023-02-28T15:33:52;98879.03;;;3.37
66180;BMP280;52986;44.028;20.466;2023-02-28T15:36:18;98880.00;;;3.25
66180;BMP280;52986;44.028;20.466;2023-02-28T15:38:50;98880.34;;;3.20
66180;BMP280;52986;44.028;20.466;2023-02-28T15:41:36;98880.72;;;3.18
66180;BMP280;52986;44.028;20.466;2023-02-28T15:44:25;98878.81;;;3.19
66180;BMP280;52986;44.028;20.466;2023-02-28T15:47:01;98877.00;;;3.26
66180;BMP280;52986;44.028;20.466;2023-02-28T15:49:27;98872.03;;;3.21
66180;BMP280;52986;44.028;20.466;2023-02-28T15:51:56;98879.25;;;3.24
66180;BMP280;52986;44.028;20.466;2023-02-28T15:54:33;98878.88;;;3.26
66180;BMP280;52986;44.028;20.466;2023-02-28T15:57:07;98884.50;;;3.17
66180;BMP280;52986;44.028;20.466;2023-02-28T15:59:37;98888.56;;;3.11
66180;BMP280;52986;44.028;20.466;2023-02-28T16:07:42;98881.22;;;2.97
66180;BMP280;52986;44.028;20.466;2023-02-28T16:10:10;98875.94;;;3.01
66180;BMP280;52986;44.028;20.466;2023-02-28T16:12:38;98881.63;;;3.03
66180;BMP280;52986;44.028;20.466;2023-02-28T16:15:17;98880.56;;;3.08
66180;BMP280;52986;44.028;20.466;2023-02-28T16:17:43;98878.28;;;3.06
66180;BMP280;52986;44.028;20.466;2023-02-28T16:20:16;98879.88;;;3.11
66180;BMP280;52986;44.028;20.466;2023-02-28T16:22:42;98890.09;;;3.12
66180;BMP280;52986;44.028;20.466;2023-02-28T16:25:14;98883.28;;;3.11
66180;BMP280;52986;44.028;20.466;2023-02-28T16:27:41;98889.34;;;3.15
66180;BMP280;52986;44.028;20.466;2023-02-28T16:30:09;98890.47;;;3.14
66180;BMP280;52986;44.028;20.466;2023-02-28T16:32:40;98888.56;;;3.11
66180;BMP280;52986;44.028;20.466;2023-02-28T16:35:10;98894.31;;;3.17
66180;BMP280;52986;44.028;20.466;2023-02-28T16:37:35;98890.09;;;3.12
66180;BMP280;52986;44.028;20.466;2023-02-28T16:40:01;98897.97;;;3.09
66180;BMP280;52986;44.028;20.466;2023-02-28T16:42:28;98892.34;;;3.10